Zabaykal'sk, Russia
Current Conditions -  °F | °C
As of 5:00 PM on Tuesday 27 Jan 2015 (Local Time) from UIAA Reporting Station
Few Clouds Few Clouds  
Wind Chill: -5°   Ceiling: Unl
Heat Index: 10°   Visibility: 6mi
Dew Point: -4°   Wind: 13mph
Humidity: 52%   Direction: 210°SSW
Pressure: 30.33"   Gusts: NA
Location:  49.66°N, 117.31°E
Report Text: UIAA 270800Z 21006MPS 9999 FEW200 M12/M20 Q1027 NOSIG RMKQFE711 29CLRD70
Loading
Personal Weather Stations






























Interactive Weather Map New forecast layout! Learn more

10-Day Weather Forecast

Advertisements
Track Severe Weather on mobile